Airfield :
LOGIN :

Register | Disclaimer

   EN    FR    IT 

 










Legend :    VFR   Marginal VFR   IFR   Intensive IFR   Very Intensive IFR
Visi :
Ceiling :
>= 8 km
>= 3000ft
5 to 8 km
1000 to 3000 ft
1500m to 5 km
500 to 1000 ft
800 to 1500m
200 to 500 ft
< 800m
< 200 ft
Symbols :   Thunderstorms  Fog  Heavy snow  Heavy precipitations  Wind > 20 kt
SIGMETs :     Misc.  Thunderstorms  Icing  Turbulence  Mountain Waves  Volcanic Ashes






- Airport Elevation : 266 ft
- IATA code : NCL


EGNT - Newcastle

CURRENT METAR :
  • 150920Z 04007KT 360V070 7000 FEW005 BKN010 19/16 Q1003

EXPIRED METARs :
  • 150850Z 04008KT 7000 FEW005 BKN010 18/16 Q1003
  • 150820Z 05008KT 6000 FEW005 BKN010 18/16 Q1003
  • 150750Z 06005KT 6000 FEW005 BKN010 18/16 Q1003
  • 150720Z 06006KT 6000 FEW005 BKN010 17/16 Q1002

TAF AMD TAF EGNT
Valid from the 15 at 06:00 until the 16 at 06:00 UTC


150605Z 1506/1606 03005KT 0200 FG BKN001
BECMG 1506/1510 9999 NSW FEW045
TEMPO 1510/1606 7000 SHRA
PROB30
TEMPO 1513/1602 4000 +TSRAGR
ATIS : +44 191 214 3400



MET'MAP, your aeronautical weather chart ! - Copyright ORBIFLY December 2007 - Disclaimer

ORBIFLY MET'MAP TEAM :

Programming & Development : Alexandra Zaïnal
Original concept : Baudouin d'Aumeries
Technical & hardware support : Manuel Goepfert
Assistance : Marc-Olivier Méhu




SOURCES & CREDITS :

   NOAA